1°C
Woerden, The Nederlands
Taal:  Nederlands
Updated16/12/2018 09:35 
 

Nearby METAR Reports

EHAM - Amsterdam/Schiph, Netherlands
Distance from station: N 27km
Updated: 16/12/2018 09:25
Mist, Zwaar bewolkt
Mist, Zwaar bewolkt
 Wind van ZZO
Wind: ZZO 15 km/h
Temperatuur: 1°C
Hitte Index: -3°C
Dauwpunt: 0°C
Vochtigheid: 93%
Barometer: 1008 hPa
Overzicht: Mist
Clouds: Zwaar bewolkt
Visibility: 1 km
Cloud details: Meestal bewolkt 30 m
Zwaar bewolkt 61 m
2018/12/16 08:25 EHAM 160825Z 15008KT 0600 R18C/1300D R27/1100N R18R/0900N R06/1200N FG BKN001 OVC002 01/00 Q1008 NOSIG
EHRD - Rotterdam Airpor, Netherlands
Distance from station: WZW 30km
Updated: 16/12/2018 09:25
Mist, Zwaar bewolkt
Mist, Zwaar bewolkt
 Wind van Z
Wind: Z 11 km/h
Temperatuur: 2°C
Hitte Index: -1°C
Dauwpunt: 2°C
Vochtigheid: 100%
Barometer: 1008 hPa
Overzicht: Mist
Clouds: Zwaar bewolkt
Visibility: 0 km
Cloud details: Zwaar bewolkt 0 m
2018/12/16 08:25 EHRD 160825Z AUTO 19006KT 150V220 0400 R24/0650N FG VV000 02/02 Q1008 R06/110595 NOSIG
 
EHGR - Gilze-Rijen Rnla, Netherlands
Distance from station: Z 57km
Updated: 16/12/2018 09:25
Mist, Zwaar bewolkt
Mist, Zwaar bewolkt
 Wind van Z
Wind: Z 13 km/h
Temperatuur: 1°C
Hitte Index: -3°C
Dauwpunt: 1°C
Vochtigheid: 100%
Barometer: 1009 hPa
Overzicht: Mist
Clouds: Zwaar bewolkt
Visibility: 0 km
Cloud details: Zwaar bewolkt 0 m
2018/12/16 08:25 EHGR 160825Z AUTO 19007KT 140V220 0350 FG VV000 01/01 Q1009 RED
EHDL - Deelen Rnlafb, Netherlands
Distance from station: O 71km
Updated: 16/12/2018 09:25
Light freezing, Neerslag, Light snow, Zwaar bewolkt
Light freezing, Neerslag, Light snow, Zwaar bewolkt
 Wind van ZZO
Wind: ZZO 11 km/h
Temperatuur: 0°C
Hitte Index: -4°C
Dauwpunt: 0°C
Vochtigheid: 100%
Barometer: 1009 hPa
Overzicht: Light freezing, Neerslag, Light snow
Clouds: Zwaar bewolkt
Visibility: 1 km
Cloud details: Meestal bewolkt 61 m
Zwaar bewolkt 91 m
2018/12/16 08:25 EHDL 160825Z AUTO 16006KT 120V210 1400 -FZRA -SN BKN002 OVC003 M00/M00 Q1009 REDZSN AMB
 
EHVK - Volkel Rnlafb, Netherlands
Distance from station: ZO 77km
Updated: 16/12/2018 09:25
Mist, Zwaar bewolkt
Mist, Zwaar bewolkt
 Wind van Z
Wind: Z 11 km/h
Temperatuur: 0°C
Hitte Index: -4°C
Dauwpunt: 0°C
Vochtigheid: 100%
Barometer: 1009 hPa
Overzicht: Mist
Clouds: Zwaar bewolkt
Visibility: 1 km
Cloud details: Zwaar bewolkt 61 m
2018/12/16 08:25 EHVK 160825Z AUTO 18006KT 130V200 1300 R06L/1300N BR OVC002 00/00 Q1009 AMB
EHWO - Woensdrecht Rnla, Netherlands
Distance from station: ZZW 78km
Updated: 16/12/2018 09:31
Mist, Zwaar bewolkt
Mist, Zwaar bewolkt
 Wind van ZW
Wind: ZW 15 km/h
Temperatuur: 3°C
Hitte Index: -1°C
Dauwpunt: 3°C
Vochtigheid: 100%
Barometer: 1009 hPa
Overzicht: Mist
Clouds: Zwaar bewolkt
Visibility: 1 km
Cloud details: Zwaar bewolkt 30 m
2018/12/16 08:31 EHWO 160831Z AUTO 22008KT 0800 FG VV001 03/03 Q1009 AMB
 
EHEH - Eindhoven Rnlafb, Netherlands
Distance from station: ZZO 81km
Updated: 16/12/2018 09:25
Mist, Zwaar bewolkt
Mist, Zwaar bewolkt
 Wind van Z
Wind: Z 13 km/h
Temperatuur: 1°C
Hitte Index: -3°C
Dauwpunt: 1°C
Vochtigheid: 100%
Barometer: 1010 hPa
Overzicht: Mist
Clouds: Zwaar bewolkt
Visibility: 1 km
Cloud details: Meestal bewolkt 30 m
Zwaar bewolkt 91 m
2018/12/16 08:25 EHEH 160825Z AUTO 19007KT 0900 R21/1000D FG BKN001 OVC003 01/01 Q1010 RED 19007KT 1200 BR SCT003 BKN005 BECMG 0800 FG SCT001 BKN003
EHSC - Goeree Le Sea, Netherlands
Distance from station: W 81km
Updated: 16/12/2018 09:25
Mist
Mist
 Wind van ZW
Wind: ZW 35 km/h
Temperatuur: 5°C
Hitte Index: -1°C
Dauwpunt: 5°C
Vochtigheid: 100%
Barometer: 1008 hPa
Overzicht: Mist
Visibility: 2 km
2018/12/16 08:25 EHSC 160825Z AUTO 23019KT 1700 BR ///////// 05/05 Q1008 W08/H12